IN-0028 weather

Pukpui Helipad
Mizoram, India

Public forecast

Using degrees Celsius for public forecast. Weather courtesy of forecast.io.

Closest aviation weather report (METAR) to Pukpui Helipad

Report is more than 2 hours old.

Closest report is Lengpui Airport, 54.6 nm (101.0 km) N. Retrieved 2020/02/23 11:00 UTC (3 hours ago):

VELP 231100Z 23004KT 5000 HZ FEW020 28/12 Q1016 BECMG 3000 HZ

Closest aviation forecast (TAF) to Pukpui Helipad

Closest forecast is Shah Amanat International Airport, 67.3 nm (124.7 km) SW. Retrieved 2020/02/23 12:33 UTC (1 hour ago):

TAF TAF VGEG 231100Z 2312/2418 24005KT 3500 HZ NSC BECMG 2320/2322 00000KT 3100 HZ NSC TEMPO 2400/2404 00000KT 2000 BR SCT015 BECMG 2405/2407 24007KT 3500 HZ NSC BECMG 2414/2416 26008KT 3500 HZ SCT100